Time;durP1;ratioP1;P1;durP2;ratioP2;P2;SDS_P1;SDS_P2;PMS_P1;PMS_P2;Temp;Humidity;BMP_temperature;BMP_pressure;BME280_temperature;BME280_humidity;BME280_pressure;Samples;Min_cycle;Max_cycle;Signal;HPM_P1;HPM_P2
2022/05/11 00:01:32;;;;;;;9.02;5.47;;;13.70;99.90;;;;;;5030364;28;20049;-65
2022/05/11 00:03:59;;;;;;;9.07;5.70;;;13.60;99.90;;;;;;5031822;28;20037;-65
2022/05/11 00:06:26;;;;;;;9.63;4.65;;;13.60;99.90;;;;;;5032583;28;20072;-66
2022/05/11 00:08:53;;;;;;;6.47;4.72;;;13.70;99.90;;;;;;5013794;28;20431;-64
2022/05/11 00:11:19;;;;;;;7.45;4.90;;;13.70;99.90;;;;;;5030453;28;20049;-64
2022/05/11 00:13:45;;;;;;;6.68;5.03;;;13.60;99.90;;;;;;5030327;28;20064;-65
2022/05/11 00:16:11;;;;;;;6.90;5.05;;;13.50;99.90;;;;;;5028892;28;20053;-64
2022/05/11 00:18:38;;;;;;;9.80;5.13;;;13.60;99.90;;;;;;5030269;28;20509;-64
2022/05/11 00:21:04;;;;;;;6.65;4.88;;;13.60;99.90;;;;;;5029797;28;20053;-64
2022/05/11 00:23:30;;;;;;;6.40;4.75;;;13.30;99.90;;;;;;5030253;28;20049;-64
2022/05/11 00:25:55;;;;;;;7.55;4.55;;;13.40;99.90;;;;;;5030075;28;20060;-65
2022/05/11 00:28:21;;;;;;;6.68;4.20;;;13.50;99.90;;;;;;5031552;28;20052;-64
2022/05/11 00:30:48;;;;;;;10.52;5.03;;;13.60;99.90;;;;;;5028710;28;20085;-64
2022/05/11 00:33:15;;;;;;;8.65;5.18;;;13.50;99.90;;;;;;5030141;28;20053;-63
2022/05/11 00:35:42;;;;;;;5.43;4.10;;;13.60;99.90;;;;;;5029341;28;20042;-64
2022/05/11 00:38:09;;;;;;;5.45;4.72;;;13.50;99.90;;;;;;5031562;28;20053;-66
2022/05/11 00:40:41;;;;;;;5.30;4.57;;;13.30;99.90;;;;;;5031242;28;20476;-65
2022/05/11 00:43:07;;;;;;;6.47;4.93;;;13.40;99.90;;;;;;5030135;28;20103;-64
2022/05/11 00:45:32;;;;;;;6.93;4.25;;;13.50;99.90;;;;;;5029037;28;20062;-65
2022/05/11 00:48:01;;;;;;;6.70;4.40;;;13.40;99.90;;;;;;5025408;28;20448;-65
2022/05/11 00:50:32;;;;;;;6.22;4.50;;;13.30;99.90;;;;;;5029932;28;20049;-63
2022/05/11 00:53:09;;;;;;;8.65;4.50;;;13.20;99.90;;;;;;5031785;28;20477;-64
2022/05/11 00:55:38;;;;;;;6.30;4.18;;;13.30;99.90;;;;;;5035093;28;20099;-64
2022/05/11 00:58:15;;;;;;;5.63;4.57;;;13.30;99.90;;;;;;5034149;28;20053;-64
2022/05/11 01:00:44;;;;;;;8.60;4.82;;;13.20;99.90;;;;;;5033267;28;20386;-64
2022/05/11 01:03:16;;;;;;;7.28;5.05;;;13.40;99.90;;;;;;5048928;28;20049;-63
2022/05/11 01:05:43;;;;;;;7.30;4.40;;;13.30;99.90;;;;;;5034532;28;20115;-64
2022/05/11 01:08:09;;;;;;;5.45;4.35;;;13.40;99.90;;;;;;5033153;28;20093;-64
2022/05/11 01:10:35;;;;;;;9.45;5.00;;;13.30;99.90;;;;;;5033541;28;20077;-65
2022/05/11 01:13:04;;;;;;;7.53;4.78;;;13.30;99.90;;;;;;5032969;28;20521;-64
2022/05/11 01:15:32;;;;;;;6.82;5.07;;;13.40;99.90;;;;;;5033009;28;20049;-63
2022/05/11 01:17:59;;;;;;;7.00;4.78;;;13.30;99.90;;;;;;5031999;28;20383;-64
2022/05/11 01:20:28;;;;;;;8.77;4.57;;;13.30;99.90;;;;;;5034705;28;20050;-65
2022/05/11 01:23:13;;;;;;;8.73;4.90;;;13.20;99.90;;;;;;5033657;28;20568;-65
2022/05/11 01:25:39;;;;;;;5.72;5.10;;;13.40;99.90;;;;;;5031624;28;20478;-64
2022/05/11 01:28:16;;;;;;;5.82;4.45;;;13.10;99.90;;;;;;5033622;28;20128;-64
2022/05/11 01:30:51;;;;;;;7.93;5.20;;;13.30;99.90;;;;;;5031087;28;20060;-65
2022/05/11 01:33:22;;;;;;;7.82;4.95;;;13.50;99.90;;;;;;5018332;28;20064;-65
2022/05/11 01:36:05;;;;;;;9.80;5.00;;;13.40;99.90;;;;;;5033381;28;20449;-64
2022/05/11 01:38:46;;;;;;;8.10;4.90;;;13.30;99.90;;;;;;5033911;28;20085;-63
2022/05/11 01:41:26;;;;;;;8.07;4.97;;;13.40;99.90;;;;;;5032433;28;20387;-63
2022/05/11 01:43:53;;;;;;;9.57;4.50;;;13.40;99.90;;;;;;5034410;28;20057;-64
2022/05/11 01:46:19;;;;;;;6.70;4.78;;;13.30;99.90;;;;;;5031880;28;20056;-64
2022/05/11 01:48:45;;;;;;;4.75;4.25;;;13.20;99.90;;;;;;5032036;28;20057;-64
2022/05/11 01:51:15;;;;;;;6.45;4.63;;;13.40;99.90;;;;;;5031850;28;20045;-65
2022/05/11 01:53:42;;;;;;;4.40;3.97;;;13.30;99.90;;;;;;5031014;28;20060;-64
2022/05/11 01:56:09;;;;;;;6.15;4.20;;;13.30;99.90;;;;;;5032621;28;20128;-64
2022/05/11 01:58:36;;;;;;;6.18;4.13;;;13.30;99.90;;;;;;5031693;28;20212;-64
2022/05/11 02:01:02;;;;;;;7.40;4.78;;;13.20;99.90;;;;;;5032080;28;20184;-64
2022/05/11 02:03:28;;;;;;;8.70;4.60;;;13.30;99.90;;;;;;5032726;28;20053;-64
2022/05/11 02:08:43;;;;;;;8.02;5.15;;;13.40;99.90;;;;;;5033603;28;20081;-64
2022/05/11 02:11:09;;;;;;;5.45;4.40;;;13.60;99.90;;;;;;5032223;28;20059;-63
2022/05/11 02:13:35;;;;;;;6.65;4.60;;;13.30;99.90;;;;;;5033824;28;20057;-64
2022/05/11 02:16:00;;;;;;;6.03;4.35;;;13.00;99.90;;;;;;5030358;28;20500;-64
2022/05/11 02:18:26;;;;;;;6.82;4.93;;;13.30;99.90;;;;;;5031836;28;20473;-66
2022/05/11 02:20:51;;;;;;;6.57;4.90;;;13.30;99.90;;;;;;5032900;28;20049;-64
2022/05/11 02:23:19;;;;;;;6.95;4.93;;;13.40;99.90;;;;;;5032736;28;20057;-65
2022/05/11 02:25:46;;;;;;;7.32;4.78;;;13.30;99.90;;;;;;5032183;28;20093;-65
2022/05/11 02:28:12;;;;;;;7.30;4.93;;;13.40;99.90;;;;;;5032271;28;20115;-64
2022/05/11 02:30:38;;;;;;;8.30;5.00;;;13.40;99.90;;;;;;5032549;28;20142;-63
2022/05/11 02:33:04;;;;;;;7.50;5.03;;;13.30;99.90;;;;;;5032443;28;20057;-64
2022/05/11 02:35:29;;;;;;;6.93;5.43;;;13.30;99.90;;;;;;5033320;28;20081;-64
2022/05/11 02:38:02;;;;;;;7.03;5.30;;;13.30;99.90;;;;;;5031393;28;20140;-63
2022/05/11 02:40:31;;;;;;;;;;;13.30;99.90;;;;;;5032099;28;20103;-63
2022/05/11 02:42:58;;;;;;;6.45;4.95;;;13.40;99.90;;;;;;5032238;28;19924;-64
2022/05/11 02:45:25;;;;;;;6.57;4.63;;;13.30;99.90;;;;;;5043643;28;20052;-64
2022/05/11 02:47:52;;;;;;;8.25;4.82;;;13.30;99.90;;;;;;5018354;28;20129;-64
2022/05/11 02:50:31;;;;;;;7.60;4.93;;;13.40;99.90;;;;;;5032768;28;20099;-64
2022/05/11 02:52:56;;;;;;;6.35;3.88;;;13.30;99.90;;;;;;5032046;28;20053;-63
2022/05/11 02:55:22;;;;;;;6.65;3.95;;;13.30;99.90;;;;;;5032633;28;20060;-63
2022/05/11 02:57:48;;;;;;;5.20;3.90;;;13.50;99.90;;;;;;5032230;28;20053;-64
2022/05/11 03:00:16;;;;;;;8.95;4.00;;;13.50;99.90;;;;;;5030317;28;20041;-64
2022/05/11 03:02:42;;;;;;;4.28;3.70;;;13.60;99.90;;;;;;5031465;28;20053;-63
2022/05/11 03:05:12;;;;;;;5.57;4.10;;;13.60;99.90;;;;;;5030259;28;20492;-64
2022/05/11 03:07:38;;;;;;;6.22;4.32;;;13.50;99.90;;;;;;5032389;28;20100;-64
2022/05/11 03:10:04;;;;;;;8.35;4.45;;;13.50;99.90;;;;;;5031792;28;20465;-64
2022/05/11 03:12:32;;;;;;;7.28;4.25;;;13.50;99.90;;;;;;5031003;28;20088;-64
2022/05/11 03:14:58;;;;;;;7.68;4.22;;;13.30;99.90;;;;;;5031002;28;20049;-64
2022/05/11 03:17:24;;;;;;;6.40;4.10;;;13.40;99.90;;;;;;5030407;28;20053;-64
2022/05/11 03:19:50;;;;;;;5.00;3.90;;;13.50;99.90;;;;;;5031264;28;20505;-66
2022/05/11 03:22:16;;;;;;;7.18;4.25;;;13.40;99.90;;;;;;5031713;28;20053;-64
2022/05/11 03:24:41;;;;;;;5.75;4.10;;;13.50;99.90;;;;;;5029970;28;20108;-63
2022/05/11 03:27:07;;;;;;;6.53;4.05;;;13.40;99.90;;;;;;5031571;28;20049;-65
2022/05/11 03:29:33;;;;;;;5.63;3.80;;;13.50;99.90;;;;;;5030824;28;20469;-64
2022/05/11 03:34:44;;;;;;;6.32;4.00;;;13.50;99.90;;;;;;5028492;28;20045;-65
2022/05/11 03:37:12;;;;;;;6.65;4.10;;;14.10;99.90;;;;;;5031501;28;20440;-65
2022/05/11 03:39:38;;;;;;;4.00;3.67;;;13.20;99.90;;;;;;5030925;28;20316;-64
2022/05/11 03:42:06;;;;;;;6.93;3.92;;;13.30;99.90;;;;;;5029406;28;20068;-65
2022/05/11 03:44:32;;;;;;;6.20;4.15;;;13.60;99.90;;;;;;5031238;28;20049;-64
2022/05/11 03:46:57;;;;;;;9.55;4.47;;;13.30;99.90;;;;;;5030531;28;20045;-64
2022/05/11 03:49:23;;;;;;;8.02;4.03;;;13.50;99.90;;;;;;5029220;28;20060;-65
2022/05/11 03:51:50;;;;;;;6.38;4.00;;;13.60;99.90;;;;;;5030337;28;20048;-63
2022/05/11 03:54:17;;;;;;;6.63;4.10;;;13.50;99.90;;;;;;5032061;28;20053;-65
2022/05/11 03:56:43;;;;;;;6.10;4.07;;;13.60;99.90;;;;;;5029907;28;20128;-63
2022/05/11 03:59:09;;;;;;;5.55;4.10;;;13.50;99.90;;;;;;5030998;28;20137;-64
2022/05/11 04:01:35;;;;;;;7.55;4.35;;;13.50;99.90;;;;;;5029081;28;20049;-64
2022/05/11 04:04:01;;;;;;;7.10;4.47;;;13.60;99.90;;;;;;5029349;28;20063;-64
2022/05/11 04:06:27;;;;;;;7.90;4.03;;;13.50;99.90;;;;;;5029614;28;20061;-64
2022/05/11 04:08:53;;;;;;;7.80;4.10;;;13.60;99.90;;;;;;5032845;28;20216;-64
2022/05/11 04:11:19;;;;;;;7.45;4.35;;;13.70;99.90;;;;;;5029907;28;20053;-64
2022/05/11 04:13:45;;;;;;;8.55;4.28;;;13.60;99.90;;;;;;5031862;28;20096;-65
2022/05/11 04:16:11;;;;;;;8.30;4.57;;;13.60;99.90;;;;;;5030358;28;20053;-64
2022/05/11 04:18:37;;;;;;;6.75;3.88;;;13.70;99.90;;;;;;5032526;28;20054;-63
2022/05/11 04:21:03;;;;;;;6.53;4.28;;;13.70;99.90;;;;;;5027034;28;20119;-64
2022/05/11 04:23:28;;;;;;;6.10;4.22;;;13.70;99.90;;;;;;5032417;28;20057;-63
2022/05/11 04:25:55;;;;;;;6.15;4.38;;;13.70;99.90;;;;;;5029489;28;20061;-65
2022/05/11 04:28:21;;;;;;;9.68;4.78;;;13.80;99.90;;;;;;5033603;28;20054;-64
2022/05/11 04:30:46;;;;;;;6.43;4.70;;;13.50;99.90;;;;;;5032843;28;20102;-64
2022/05/11 04:33:12;;;;;;;7.82;4.15;;;13.70;99.90;;;;;;5032540;28;20051;-63
2022/05/11 04:35:38;;;;;;;7.28;4.78;;;13.60;99.90;;;;;;5032079;28;20063;-64
2022/05/11 04:38:07;;;;;;;7.43;4.30;;;13.70;99.90;;;;;;5034072;28;20081;-63
2022/05/11 04:40:34;;;;;;;9.70;4.90;;;13.80;99.90;;;;;;5035522;28;20057;-64
2022/05/11 04:43:06;;;;;;;5.97;4.60;;;13.70;99.90;;;;;;5035372;28;20139;-65
2022/05/11 04:45:31;;;;;;;10.32;4.90;;;13.70;99.90;;;;;;5033941;28;20054;-65
2022/05/11 04:47:57;;;;;;;7.25;4.57;;;13.60;99.90;;;;;;5033222;28;20065;-65
2022/05/11 04:50:22;;;;;;;8.25;4.78;;;13.60;99.90;;;;;;5033464;28;20050;-64
2022/05/11 04:52:48;;;;;;;8.13;4.68;;;13.60;99.90;;;;;;5032974;28;20072;-65
2022/05/11 04:55:14;;;;;;;7.32;4.60;;;13.60;99.90;;;;;;5033678;28;20111;-63
2022/05/11 04:57:39;;;;;;;7.63;4.45;;;13.70;99.90;;;;;;5032740;28;20045;-64
2022/05/11 05:00:12;;;;;;;9.38;4.47;;;13.60;99.90;;;;;;5032767;28;20049;-64
2022/05/11 05:02:38;;;;;;;5.95;4.35;;;13.80;99.90;;;;;;5031625;28;20125;-64
2022/05/11 05:05:05;;;;;;;8.80;4.88;;;13.70;99.90;;;;;;5032788;28;20102;-65
2022/05/11 05:07:34;;;;;;;15.45;4.78;;;13.90;99.90;;;;;;5032070;28;20092;-64
2022/05/11 05:10:09;;;;;;;11.30;5.00;;;13.90;99.90;;;;;;5033943;28;20121;-65
2022/05/11 05:12:35;;;;;;;8.38;4.93;;;13.90;99.90;;;;;;5030758;28;20057;-64
2022/05/11 05:15:01;;;;;;;9.27;5.47;;;13.80;99.90;;;;;;5033336;28;20072;-64
2022/05/11 05:17:27;;;;;;;7.28;5.10;;;13.90;99.90;;;;;;5032311;28;20470;-64
2022/05/11 05:19:53;;;;;;;7.82;5.00;;;14.00;99.90;;;;;;5034625;28;20415;-65
2022/05/11 05:22:18;;;;;;;6.63;4.72;;;14.10;99.90;;;;;;5029766;28;20045;-63
2022/05/11 05:24:45;;;;;;;7.93;4.63;;;14.10;99.90;;;;;;5031539;28;20486;-65
2022/05/11 05:27:14;;;;;;;6.82;5.28;;;14.10;99.90;;;;;;5033103;28;20053;-64
2022/05/11 05:32:23;;;;;;;10.75;4.80;;;14.20;99.90;;;;;;5031279;28;20069;-64
2022/05/11 05:34:49;;;;;;;7.93;5.30;;;14.30;99.90;;;;;;5029593;28;20049;-65
2022/05/11 05:37:16;;;;;;;7.00;5.32;;;14.30;99.90;;;;;;5029918;28;20062;-64
2022/05/11 05:39:43;;;;;;;8.57;4.97;;;14.40;99.90;;;;;;5013139;28;20143;-64
2022/05/11 05:42:09;;;;;;;6.85;5.20;;;14.50;99.90;;;;;;5013178;28;20045;-64
2022/05/11 05:44:37;;;;;;;8.65;4.72;;;14.80;99.90;;;;;;5014899;28;20100;-64
2022/05/11 05:47:07;;;;;;;9.98;5.50;;;14.80;99.90;;;;;;5026048;28;20540;-65
2022/05/11 05:49:33;;;;;;;10.02;5.22;;;14.80;99.90;;;;;;5031803;28;20050;-66
2022/05/11 05:52:01;;;;;;;8.55;4.97;;;14.90;99.90;;;;;;5031002;28;20042;-65
2022/05/11 05:54:32;;;;;;;9.07;5.38;;;15.20;99.90;;;;;;5026473;28;20050;-65
2022/05/11 05:56:58;;;;;;;10.23;5.60;;;14.80;99.90;;;;;;5047906;28;20512;-66
2022/05/11 05:59:24;;;;;;;9.95;4.95;;;14.90;99.90;;;;;;5033896;28;20049;-65
2022/05/11 06:01:50;;;;;;;9.13;4.70;;;14.80;99.90;;;;;;5032269;28;20490;-65
2022/05/11 06:04:16;;;;;;;9.43;5.38;;;14.90;99.90;;;;;;5029300;28;20111;-64
2022/05/11 06:06:42;;;;;;;6.55;4.43;;;14.70;99.90;;;;;;5030796;28;20483;-64
2022/05/11 06:09:09;;;;;;;7.55;4.15;;;14.90;99.90;;;;;;5032345;28;20370;-65
2022/05/11 06:11:36;;;;;;;9.18;4.53;;;14.90;99.90;;;;;;5034164;28;20061;-64
2022/05/11 06:14:02;;;;;;;6.32;3.65;;;15.00;99.90;;;;;;5034329;28;20327;-64
2022/05/11 06:16:28;;;;;;;8.07;4.55;;;15.10;99.90;;;;;;5031096;28;20053;-64
2022/05/11 06:18:54;;;;;;;7.57;4.18;;;15.10;99.90;;;;;;5032498;28;20065;-64
2022/05/11 06:21:20;;;;;;;11.38;4.13;;;15.10;99.90;;;;;;5032351;28;20099;-65
2022/05/11 06:23:46;;;;;;;10.75;4.82;;;15.20;99.90;;;;;;5032915;28;20183;-63
2022/05/11 06:26:12;;;;;;;9.05;4.07;;;15.20;99.90;;;;;;5032638;28;20132;-64
2022/05/11 06:28:40;;;;;;;7.82;3.75;;;15.20;99.90;;;;;;5033806;28;20541;-64
2022/05/11 06:31:07;;;;;;;7.03;3.97;;;15.40;99.90;;;;;;5030874;28;20084;-65
2022/05/11 06:33:33;;;;;;;4.72;3.80;;;15.30;99.90;;;;;;5034075;28;20485;-65
2022/05/11 06:35:59;;;;;;;7.80;3.97;;;15.40;99.90;;;;;;5031248;28;20045;-65
2022/05/11 06:38:26;;;;;;;7.90;3.53;;;15.60;99.90;;;;;;5031343;28;20046;-64
2022/05/11 06:40:51;;;;;;;7.95;3.83;;;15.60;99.90;;;;;;5033853;28;20058;-63
2022/05/11 06:43:17;;;;;;;7.80;3.60;;;15.60;99.90;;;;;;5027382;28;20050;-65
2022/05/11 06:45:43;;;;;;;7.10;3.78;;;15.90;99.90;;;;;;5032728;28;20092;-64
2022/05/11 06:48:08;;;;;;;5.32;3.58;;;16.00;99.90;;;;;;5031736;28;20053;-64
2022/05/11 06:50:34;;;;;;;7.60;3.53;;;16.20;99.90;;;;;;5030553;28;20537;-64
2022/05/11 06:53:08;;;;;;;7.53;3.88;;;16.20;99.90;;;;;;5022664;28;20422;-63
2022/05/11 06:59:20;;;;;;;7.35;3.28;;;16.30;99.90;;;;;;5038527;28;20547;-62
2022/05/11 07:01:15;;;;;;;9.07;3.15;;;16.30;99.90;;;;;;5017525;28;20064;-64
2022/05/11 07:03:42;;;;;;;5.88;2.75;;;16.50;99.90;;;;;;5031569;28;20462;-64
2022/05/11 07:06:08;;;;;;;9.27;3.60;;;16.30;99.90;;;;;;5027739;28;20057;-63
2022/05/11 07:08:39;;;;;;;9.25;3.15;;;16.40;99.90;;;;;;5015412;28;20095;-63
2022/05/11 07:13:51;;;;;;;5.22;2.72;;;16.50;99.90;;;;;;5032617;28;20057;-65
2022/05/11 07:16:18;;;;;;;6.80;2.78;;;16.40;99.90;;;;;;5030834;28;20148;-65
2022/05/11 07:18:43;;;;;;;7.93;2.63;;;16.50;99.90;;;;;;5031833;28;20057;-64
2022/05/11 07:21:09;;;;;;;7.20;3.22;;;16.60;99.90;;;;;;5031804;28;20045;-65
2022/05/11 07:23:35;;;;;;;4.60;2.42;;;16.80;99.90;;;;;;5031213;28;20057;-64
2022/05/11 07:26:01;;;;;;;3.17;2.08;;;16.90;99.90;;;;;;5032544;28;20064;-65
2022/05/11 07:28:27;;;;;;;5.85;2.38;;;17.00;99.90;;;;;;5031789;28;20045;-65
2022/05/11 07:30:53;;;;;;;6.65;2.20;;;17.10;99.90;;;;;;5031157;28;20103;-64
2022/05/11 07:33:19;;;;;;;4.70;2.10;;;17.10;99.90;;;;;;5031500;28;20053;-65
2022/05/11 07:35:45;;;;;;;8.93;2.55;;;17.10;99.90;;;;;;5032886;28;20064;-65
2022/05/11 07:38:14;;;;;;;6.93;2.15;;;17.00;99.90;;;;;;5030913;28;20081;-64
2022/05/11 07:40:41;;;;;;;5.28;1.92;;;16.90;99.90;;;;;;5030529;28;20525;-65
2022/05/11 07:43:08;;;;;;;3.97;1.95;;;17.00;99.90;;;;;;5031164;28;20080;-64
2022/05/11 07:45:34;;;;;;;5.05;2.13;;;17.00;99.90;;;;;;5032861;28;20192;-65
2022/05/11 07:48:00;;;;;;;5.38;1.90;;;17.10;99.90;;;;;;5030631;28;20055;-63
2022/05/11 07:50:26;;;;;;;6.00;2.00;;;17.20;99.90;;;;;;5030820;28;20464;-64
2022/05/11 07:52:52;;;;;;;5.03;2.30;;;17.20;99.90;;;;;;5031397;28;20057;-64
2022/05/11 07:55:18;;;;;;;5.97;1.70;;;17.30;99.90;;;;;;5014977;28;20049;-64
2022/05/11 08:00:28;;;;;;;10.50;2.25;;;17.40;99.90;;;;;;5031759;28;20049;-64
2022/05/11 08:02:53;;;;;;;8.85;2.22;;;17.50;99.90;;;;;;5034012;28;20055;-64
2022/05/11 08:05:21;;;;;;;7.32;1.75;;;17.60;99.90;;;;;;5034708;28;20089;-64
2022/05/11 08:07:49;;;;;;;4.72;1.48;;;17.70;99.90;;;;;;5035115;28;20054;-64
2022/05/11 08:10:22;;;;;;;5.72;1.75;;;17.80;99.90;;;;;;5035541;28;20519;-65
2022/05/11 08:12:49;;;;;;;10.55;2.38;;;17.90;99.90;;;;;;5036505;28;20057;-63
2022/05/11 08:15:15;;;;;;;4.93;1.92;;;17.90;99.90;;;;;;5034518;28;20061;-65
2022/05/11 08:17:43;;;;;;;4.32;1.70;;;18.10;99.90;;;;;;5034303;28;20486;-63
2022/05/11 08:20:24;;;;;;;7.43;1.73;;;18.20;99.90;;;;;;5031567;28;20068;-64
2022/05/11 08:22:51;;;;;;;7.53;1.90;;;18.30;99.90;;;;;;5033361;28;20096;-63
2022/05/11 08:25:20;;;;;;;3.67;1.70;;;18.40;99.90;;;;;;5034374;28;20119;-64
2022/05/11 08:27:47;;;;;;;5.72;1.83;;;18.90;99.90;;;;;;5034018;28;20132;-63
2022/05/11 08:35:43;;;;;;;3.70;1.60;;;19.10;99.90;;;;;;5034801;28;20482;-63
2022/05/11 08:38:10;;;;;;;5.28;1.88;;;19.00;99.90;;;;;;5034859;28;20128;-64
2022/05/11 08:40:37;;;;;;;5.43;1.50;;;19.00;99.90;;;;;;5036054;28;20054;-63
2022/05/11 08:43:05;;;;;;;4.00;1.35;;;19.10;99.90;;;;;;5035185;28;20158;-64
2022/05/11 08:45:55;;;;;;;5.00;1.48;;;19.20;99.90;;;;;;5034833;28;20049;-65
2022/05/11 08:48:35;;;;;;;6.88;1.73;;;19.20;99.90;;;;;;5035910;28;20099;-63
2022/05/11 08:51:03;;;;;;;6.03;1.40;;;19.10;99.30;;;;;;5035948;28;20045;-64
2022/05/11 08:53:41;;;;;;;6.20;1.75;;;19.20;99.90;;;;;;5034939;28;20343;-63
2022/05/11 08:56:14;;;;;;;8.30;1.77;;;19.30;96.00;;;;;;5033479;28;20045;-63
2022/05/11 08:58:52;;;;;;;4.93;1.40;;;19.50;99.90;;;;;;5034726;28;20390;-65
2022/05/11 09:01:23;;;;;;;7.25;1.83;;;19.80;93.10;;;;;;5033932;28;20061;-64
2022/05/11 09:03:53;;;;;;;5.15;1.70;;;19.90;98.40;;;;;;5034607;28;20124;-64
2022/05/11 09:06:28;;;;;;;8.00;1.80;;;20.00;96.50;;;;;;5032519;28;20049;-64
2022/05/11 09:08:59;;;;;;;5.72;1.77;;;20.10;98.70;;;;;;5029605;28;20095;-65
2022/05/11 09:12:02;;;;;;;7.13;1.77;;;20.10;97.20;;;;;;5032930;28;20103;-63
2022/05/11 09:14:33;;;;;;;7.53;1.73;;;20.10;87.20;;;;;;5029179;28;20483;-65
2022/05/11 09:16:59;;;;;;;11.77;1.75;;;20.20;98.20;;;;;;5014826;28;20060;-64
2022/05/11 09:19:29;;;;;;;4.57;1.60;;;20.20;96.30;;;;;;5033224;28;20124;-64
2022/05/11 09:22:04;;;;;;;6.78;2.05;;;19.90;88.90;;;;;;5033862;28;20064;-64
2022/05/11 09:24:44;;;;;;;4.80;1.60;;;19.80;99.00;;;;;;5034180;28;20053;-63
2022/05/11 09:27:23;;;;;;;8.45;1.65;;;19.70;98.00;;;;;;5033064;28;20067;-64
2022/05/11 09:30:03;;;;;;;5.43;1.70;;;19.70;96.60;;;;;;5045510;28;20061;-62
2022/05/11 09:32:42;;;;;;;5.75;1.70;;;19.50;96.60;;;;;;5033082;28;20064;-63
2022/05/11 09:35:31;;;;;;;7.10;1.45;;;19.70;99.90;;;;;;5035066;28;20100;-63
2022/05/11 09:38:05;;;;;;;7.28;1.63;;;20.00;78.90;;;;;;5034444;28;20359;-64
2022/05/11 09:40:47;;;;;;;9.70;2.00;;;20.10;90.50;;;;;;5033302;28;20053;-64
2022/05/11 09:43:33;;;;;;;5.55;1.52;;;20.20;95.70;;;;;;5033234;28;20084;-64
2022/05/11 09:46:00;;;;;;;3.70;1.10;;;20.40;92.10;;;;;;5032995;28;20465;-63
2022/05/11 09:48:31;;;;;;;3.17;1.33;;;20.50;84.30;;;;;;5033668;28;20075;-64
2022/05/11 09:51:16;;;;;;;3.57;1.17;;;20.60;85.70;;;;;;5034251;28;20366;-64
2022/05/11 09:53:53;;;;;;;13.77;2.60;;;20.80;78.30;;;;;;5015425;28;20462;-63
2022/05/11 09:56:28;;;;;;;3.95;1.38;;;21.00;72.90;;;;;;5030260;28;20088;-66
2022/05/11 09:58:53;;;;;;;7.70;1.83;;;21.10;77.70;;;;;;5034349;28;20199;-64
2022/05/11 10:01:28;;;;;;;4.75;1.30;;;21.00;73.40;;;;;;5032942;28;20149;-65
2022/05/11 10:04:04;;;;;;;8.55;1.27;;;21.00;71.70;;;;;;5032754;28;20114;-64
2022/05/11 10:06:41;;;;;;;4.93;1.30;;;21.00;69.00;;;;;;5031735;28;20501;-64
2022/05/11 10:09:06;;;;;;;4.03;0.82;;;20.90;70.20;;;;;;5031108;28;20089;-63
2022/05/11 10:11:39;;;;;;;3.33;0.93;;;20.80;69.90;;;;;;5033026;28;20490;-63
2022/05/11 10:23:15;;;;;;;5.53;1.50;;;21.20;69.30;;;;;;5032388;28;20061;-64
2022/05/11 10:25:43;;;;;;;6.03;1.40;;;21.00;64.00;;;;;;5032438;28;20049;-64
2022/05/11 10:28:29;;;;;;;3.28;1.17;;;21.00;69.20;;;;;;5032315;28;20053;-64
2022/05/11 10:30:58;;;;;;;5.20;1.60;;;21.10;69.00;;;;;;5027974;28;20059;-63
2022/05/11 10:33:36;;;;;;;5.40;1.55;;;21.10;70.60;;;;;;5034073;28;20473;-65
2022/05/11 10:36:37;;;;;;;8.25;1.23;;;21.40;69.30;;;;;;5031256;28;20147;-63
2022/05/11 10:39:18;;;;;;;7.78;1.27;;;21.40;64.20;;;;;;5018344;28;20054;-65
2022/05/11 10:41:50;;;;;;;6.75;1.38;;;21.30;65.50;;;;;;5032802;28;20191;-63
2022/05/11 10:44:16;;;;;;;;;;;21.20;66.60;;;;;;5031784;28;20080;-65
2022/05/11 10:46:59;;;;;;;3.45;1.20;;;21.20;66.60;;;;;;5031315;28;19964;-65
2022/05/11 10:49:55;;;;;;;5.97;1.15;;;21.30;67.60;;;;;;5032110;28;20054;-66
2022/05/11 10:52:39;;;;;;;3.75;1.10;;;21.30;63.30;;;;;;5032479;28;20064;-65
2022/05/11 10:55:25;;;;;;;4.07;1.30;;;21.30;63.60;;;;;;5028372;28;20092;-64
2022/05/11 10:58:16;;;;;;;3.25;1.00;;;21.20;62.00;;;;;;5031077;28;20119;-65
2022/05/11 11:00:57;;;;;;;6.03;1.35;;;21.20;63.10;;;;;;5029966;28;20052;-65
2022/05/11 11:04:03;;;;;;;4.85;1.20;;;21.40;65.80;;;;;;5021120;28;20052;-64
2022/05/11 11:09:53;;;;;;;4.00;1.23;;;21.70;66.80;;;;;;5022634;28;20156;-65
2022/05/11 11:12:36;;;;;;;5.25;1.27;;;21.70;63.80;;;;;;5031016;28;20498;-64
2022/05/11 11:15:10;;;;;;;4.28;1.20;;;21.70;65.00;;;;;;5023892;28;20386;-64
2022/05/11 11:17:36;;;;;;;4.93;1.40;;;21.70;64.90;;;;;;5030080;28;20493;-64
2022/05/11 11:20:05;;;;;;;7.05;1.50;;;21.60;65.30;;;;;;5030763;28;20124;-65
2022/05/11 11:23:02;;;;;;;11.45;1.70;;;21.70;65.60;;;;;;5033253;28;20053;-64
2022/05/11 11:25:43;;;;;;;12.82;2.20;;;21.60;61.20;;;;;;5031660;28;20482;-63
2022/05/11 11:28:12;;;;;;;10.00;1.80;;;21.50;61.90;;;;;;5032031;28;20437;-65
2022/05/11 11:30:39;;;;;;;6.50;1.48;;;21.50;64.80;;;;;;5029260;28;20452;-63
2022/05/11 11:33:11;;;;;;;7.40;1.42;;;21.40;65.10;;;;;;5030124;28;20099;-64
2022/05/11 11:35:51;;;;;;;5.80;1.75;;;21.40;66.50;;;;;;5032111;28;20064;-65
2022/05/11 11:38:31;;;;;;;5.43;1.13;;;21.50;66.10;;;;;;5032596;28;20072;-65
2022/05/11 11:41:09;;;;;;;7.82;1.48;;;21.60;65.00;;;;;;5031468;28;20061;-64
2022/05/11 11:43:42;;;;;;;6.65;1.95;;;21.60;64.70;;;;;;5031854;28;20061;-64
2022/05/11 11:46:08;;;;;;;6.05;1.52;;;21.40;67.90;;;;;;5032001;28;20056;-66
2022/05/11 11:48:35;;;;;;;6.55;1.92;;;21.50;69.70;;;;;;5030861;28;20548;-65
2022/05/11 11:51:04;;;;;;;4.80;1.33;;;21.50;66.70;;;;;;5031030;28;20050;-64
2022/05/11 11:53:52;;;;;;;4.43;1.65;;;21.40;67.20;;;;;;5031157;28;20080;-65
2022/05/11 11:56:24;;;;;;;5.72;1.73;;;21.50;68.50;;;;;;5029880;28;20053;-66
2022/05/11 11:59:07;;;;;;;2.97;1.40;;;21.60;69.80;;;;;;5030986;28;20152;-65
2022/05/11 12:01:44;;;;;;;6.85;1.40;;;21.60;69.60;;;;;;5031089;28;20112;-65
2022/05/11 12:04:28;;;;;;;6.00;1.77;;;21.60;67.90;;;;;;5031395;28;20147;-65
2022/05/11 12:15:40;;;;;;;7.15;1.33;;;21.70;65.50;;;;;;5031266;28;20057;-65
2022/05/11 12:18:27;;;;;;;3.78;1.35;;;21.70;66.10;;;;;;5031653;28;20050;-64
2022/05/11 12:20:54;;;;;;;4.35;1.20;;;21.70;61.80;;;;;;5030545;28;20057;-65
2022/05/11 12:23:23;;;;;;;5.18;1.50;;;21.80;64.60;;;;;;5032059;28;20535;-64
2022/05/11 12:25:56;;;;;;;4.72;1.50;;;21.80;65.10;;;;;;5030706;28;20045;-64
2022/05/11 12:28:27;;;;;;;6.95;1.30;;;21.90;63.90;;;;;;5031018;28;20487;-65
2022/05/11 12:30:53;;;;;;;6.38;1.85;;;21.90;63.60;;;;;;5030221;28;20087;-66
2022/05/11 12:33:22;;;;;;;4.20;1.77;;;21.90;63.00;;;;;;5030768;28;20092;-64
2022/05/11 12:35:49;;;;;;;6.57;1.70;;;21.90;63.10;;;;;;5031881;28;20084;-65
2022/05/11 12:38:32;;;;;;;5.22;1.50;;;22.10;63.60;;;;;;5031100;28;20061;-64
2022/05/11 12:41:01;;;;;;;6.05;1.50;;;22.30;63.90;;;;;;5031180;28;20053;-64
2022/05/11 12:43:30;;;;;;;5.57;1.70;;;22.10;63.20;;;;;;5014340;28;20465;-67
2022/05/11 12:45:59;;;;;;;6.03;1.58;;;22.30;63.40;;;;;;5030246;28;20075;-66
2022/05/11 12:48:36;;;;;;;13.32;3.40;;;22.30;63.70;;;;;;5033180;28;20060;-66
2022/05/11 12:51:16;;;;;;;7.75;1.63;;;22.20;62.60;;;;;;5034335;28;20489;-66
2022/05/11 12:54:05;;;;;;;17.08;3.17;;;22.20;61.60;;;;;;5035751;28;20394;-64
2022/05/11 12:56:39;;;;;;;7.13;1.63;;;22.10;63.30;;;;;;5033799;28;20605;-64
2022/05/11 12:59:17;;;;;;;6.55;1.80;;;22.20;62.50;;;;;;5034276;28;20057;-63
2022/05/11 13:01:43;;;;;;;7.00;1.90;;;22.20;62.70;;;;;;5033346;28;20041;-65
2022/05/11 13:04:24;;;;;;;7.35;1.42;;;22.30;62.10;;;;;;5033742;28;20080;-64
2022/05/11 13:06:54;;;;;;;7.30;1.80;;;22.20;62.50;;;;;;5031735;28;20144;-65
2022/05/11 13:09:35;;;;;;;5.80;1.80;;;22.30;62.70;;;;;;5033244;28;20080;-64
2022/05/11 13:12:02;;;;;;;6.30;1.65;;;22.40;62.50;;;;;;5034700;28;20103;-65
2022/05/11 13:14:32;;;;;;;9.50;1.90;;;22.50;62.20;;;;;;5033780;28;20076;-66
2022/05/11 13:17:04;;;;;;;6.72;1.90;;;22.40;61.40;;;;;;5033948;28;20506;-62
2022/05/11 13:19:39;;;;;;;23.80;3.80;;;22.30;61.70;;;;;;5034005;28;20041;-66
2022/05/11 13:22:18;;;;;;;10.98;2.45;;;22.10;62.20;;;;;;5024188;28;20524;-64
2022/05/11 13:24:49;;;;;;;13.43;3.25;;;22.10;63.00;;;;;;5027606;28;20060;-65
2022/05/11 13:27:26;;;;;;;20.98;3.53;;;22.10;62.80;;;;;;5028123;28;20509;-64
2022/05/11 13:30:16;;;;;;;8.75;1.83;;;22.20;64.00;;;;;;5025050;28;20442;-64
2022/05/11 13:32:46;;;;;;;7.75;2.20;;;22.10;61.40;;;;;;5022104;28;20057;-64
2022/05/11 13:35:18;;;;;;;7.47;2.30;;;22.00;62.90;;;;;;5024449;28;20060;-64
2022/05/11 13:37:54;;;;;;;12.63;2.72;;;22.00;63.00;;;;;;5022186;28;20511;-64
2022/05/11 13:40:32;;;;;;;8.77;2.17;;;21.90;62.20;;;;;;5019391;28;20081;-63
2022/05/11 13:42:58;;;;;;;7.63;2.15;;;22.00;63.40;;;;;;5023875;28;20068;-63
2022/05/11 13:45:24;;;;;;;9.57;1.95;;;21.90;62.70;;;;;;5024609;28;20128;-64